Map

Track Data

SID SEASON NUMBER BASIN SUBBASIN NAME ISO_TIME NATURE LAT LON WMO_WIND WMO_PRES WMO_AGENCY TRACK_TYPE DIST2LAND LANDFALL IFLAG USA_AGENCY USA_ATCF_ID USA_LAT USA_LON USA_RECORD USA_STATUS USA_WIND USA_PRES USA_SSHS USA_R34_NE USA_R34_SE USA_R34_SW USA_R34_NW USA_R50_NE USA_R50_SE USA_R50_SW USA_R50_NW USA_R64_NE USA_R64_SE USA_R64_SW USA_R64_NW USA_POCI USA_ROCI USA_RMW USA_EYE TOKYO_LAT TOKYO_LON TOKYO_GRADE TOKYO_WIND TOKYO_PRES TOKYO_R50_DIR TOKYO_R50_LONG TOKYO_R50_SHORT TOKYO_R30_DIR TOKYO_R30_LONG TOKYO_R30_SHORT TOKYO_LAND CMA_LAT CMA_LON CMA_CAT CMA_WIND CMA_PRES HKO_LAT HKO_LON HKO_CAT HKO_WIND HKO_PRES NEWDELHI_LAT NEWDELHI_LON NEWDELHI_GRADE NEWDELHI_WIND NEWDELHI_PRES NEWDELHI_CI NEWDELHI_DP NEWDELHI_POCI REUNION_LAT REUNION_LON REUNION_TYPE REUNION_WIND REUNION_PRES REUNION_TNUM REUNION_CI REUNION_RMW REUNION_R34_NE REUNION_R34_SE REUNION_R34_SW REUNION_R34_NW REUNION_R50_NE REUNION_R50_SE REUNION_R50_SW REUNION_R50_NW REUNION_R64_NE REUNION_R64_SE REUNION_R64_SW REUNION_R64_NW BOM_LAT BOM_LON BOM_TYPE BOM_WIND BOM_PRES BOM_TNUM BOM_CI BOM_RMW BOM_R34_NE BOM_R34_SE BOM_R34_SW BOM_R34_NW BOM_R50_NE BOM_R50_SE BOM_R50_SW BOM_R50_NW BOM_R64_NE BOM_R64_SE BOM_R64_SW BOM_R64_NW BOM_ROCI BOM_POCI BOM_EYE BOM_POS_METHOD BOM_PRES_METHOD NADI_LAT NADI_LON NADI_CAT NADI_WIND NADI_PRES WELLINGTON_LAT WELLINGTON_LON WELLINGTON_WIND WELLINGTON_PRES DS824_LAT DS824_LON DS824_STAGE DS824_WIND DS824_PRES TD9636_LAT TD9636_LON TD9636_STAGE TD9636_WIND TD9636_PRES TD9635_LAT TD9635_LON TD9635_WIND TD9635_PRES TD9635_ROCI NEUMANN_LAT NEUMANN_LON NEUMANN_CLASS NEUMANN_WIND NEUMANN_PRES MLC_LAT MLC_LON MLC_CLASS MLC_WIND MLC_PRES USA_GUST BOM_GUST BOM_GUST_PER REUNION_GUST REUNION_GUST_PER USA_SEAHGT USA_SEARAD_NE USA_SEARAD_SE USA_SEARAD_SW USA_SEARAD_NW STORM_SPEED STORM_DIR
2000193N10131 2000 44 WP MM NOT_NAMED 2000-07-10 18:00:00 TS 9.50000 131.400 main 565 534 O_____________ jtwc_wp WP072000 9.50000 131.400 TD 20 -1 8 290
2000193N10131 2000 44 WP MM NOT_NAMED 2000-07-10 21:00:00 TS 9.63017 131.033 main 524 498 P_____________ WP072000 9.63017 131.033 TD 20 -1 8 300
2000193N10131 2000 44 WP MM NOT_NAMED 2000-07-11 00:00:00 TS 9.90000 130.700 main 498 476 O_____________ jtwc_wp WP072000 9.90000 130.700 TD 20 -1 10 321
2000193N10131 2000 44 WP MM NOT_NAMED 2000-07-11 03:00:00 TS 10.3972 130.402 main 479 476 P_____________ WP072000 10.3972 130.402 TD 20 -1 13 338
2000193N10131 2000 44 WP MM NOT_NAMED 2000-07-11 06:00:00 TS 11.1000 130.200 main 480 430 O_O___________ jtwc_wp WP072000 11.0000 130.000 TD 20 -1 11.5000 131.000 1 29 1004 14 329
2000193N10131 2000 44 WP MM NOT_NAMED 2000-07-11 09:00:00 TS 11.6222 129.666 main 430 387 P_P___________ WP072000 11.5581 129.248 TD 22 -1 11.7502 130.500 1 29 1004 14 314
2000193N10131 2000 44 WP MM NOT_NAMED 2000-07-11 12:00:00 TS 12.0571 129.200 main 390 380 O_O___________ jtwc_wp WP072000 12.1000 128.600 TD 25 -1 12.0000 130.000 1 29 1004 10 322
2000193N10131 2000 44 WP MM NOT_NAMED 2000-07-11 15:00:00 TS 12.4436 129.008 main 381 362 P_P___________ WP072000 12.6372 128.517 TD 25 -1 12.2499 129.500 1 29 1004 8 332
2000193N10131 2000 44 WP MM NOT_NAMED 2000-07-11 18:00:00 TS 12.8000 128.800 main 364 337 O_O___________ jtwc_wp WP072000 13.1000 128.600 TD 25 -1 12.5000 129.000 1 29 1004 8 322
2000193N10131 2000 44 WP MM NOT_NAMED 2000-07-11 21:00:00 TS 13.0937 128.486 main 340 317 P_P___________ WP072000 13.4375 128.495 TD 25 -1 12.7500 128.477 1 29 1004 8 311
2000193N10131 2000 44 WP MM NOT_NAMED 2000-07-12 00:00:00 TS 13.3500 128.150 main 322 298 O_O___________ jtwc_wp WP072000 13.7000 128.300 TD 25 -1 13.0000 128.000 1 29 1004 8 309
2000193N10131 2000 44 WP MM NOT_NAMED 2000-07-12 03:00:00 TS 13.5961 127.840 main 294 281 P_P___________ WP072000 13.9574 128.052 TD 25 -1 13.2348 127.627 1 26 1004 8 308
2000193N10131 2000 44 WP MM NOT_NAMED 2000-07-12 06:00:00 TS 13.8500 127.500 main 288 272 O_O___________ jtwc_wp WP072000 14.2000 127.700 TD 25 -1 13.5000 127.300 1 23 1004 9 308
2000193N10131 2000 44 WP MM NOT_NAMED 2000-07-12 09:00:00 TS 14.1537 127.101 main 280 254 P_P___________ WP072000 14.4575 127.245 TD 25 -1 13.8499 126.958 1 23 1004 10 306
2000193N10131 2000 44 WP MM NOT_NAMED 2000-07-12 12:00:00 TS 14.4500 126.650 main 256 213 O_O___________ jtwc_wp WP072000 14.7000 126.700 TD 25 -1 14.2000 126.600 1 23 1004 11 301
2000193N10131 2000 44 WP MM NOT_NAMED 2000-07-12 15:00:00 TS 14.6861 126.169 main 213 179 P_P___________ WP072000 14.8923 126.137 TD 25 -1 14.4800 126.200 1 23 1004 11 295
2000193N10131 2000 44 WP MM NOT_NAMED 2000-07-12 18:00:00 TS 14.9000 125.650 main 179 150 O_O___________ jtwc_wp WP072000 15.1000 125.500 TD 25 -1 14.7000 125.800 1 23 1004 11 294
2000193N10131 2000 44 WP MM NOT_NAMED 2000-07-12 21:00:00 TS 15.1439 125.081 main 150 144 P_P___________ WP072000 15.4305 124.706 TD 25 -1 14.8573 125.457 1 23 1004 12 293
2000193N10131 2000 44 WP MM NOT_NAMED 2000-07-13 00:00:00 TS 15.3500 124.550 main 160 149 O_O___________ jtwc_wp WP072000 15.7000 124.000 TD 25 -1 15.0000 125.100 1 23 1004 10 290
2000193N10131 2000 44 WP MM NOT_NAMED 2000-07-13 03:00:00 TS 15.4723 124.149 main 167 167 P_P___________ WP072000 15.7521 123.625 TD 25 -1 15.1924 124.672 1 23 1003 8 285
2000193N10131 2000 44 WP MM NOT_NAMED 2000-07-13 06:00:00 TS 15.5500 123.800 main 181 154 O_O___________ jtwc_wp WP072000 15.7000 123.400 TD 25 -1 15.4000 124.200 1 23 1002 7 284
2000193N10131 2000 44 WP MM NOT_NAMED 2000-07-13 09:00:00 TS 15.6299 123.474 main 154 111 P_P___________ WP072000 15.6487 123.203 TD 25 -1 15.6148 123.723 1 23 1001 7 285
2000193N10131 2000 44 WP MM NOT_NAMED 2000-07-13 12:00:00 TS 15.7333 123.100 main 111 69 O_O___________ jtwc_wp WP072000 15.6000 122.900 TD 25 -1 15.8000 123.200 1 23 1000 8 286
2000193N10131 2000 44 WP MM NOT_NAMED 2000-07-13 15:00:00 TS 15.8328 122.719 main 69 10 P_P___________ WP072000 15.6180 122.094 TD -1 15.8910 122.734 1 23 999 11 284
2000193N10131 2000 44 WP MM NOT_NAMED 2000-07-13 18:00:00 TS 16.0000 122.000 main 0 0 P_O___________ WP072000 15.6768 120.950 TD -1 16.0000 122.000 1 23 999 21 281
2000193N10131 2000 44 WP MM NOT_NAMED 2000-07-13 21:00:00 TS 16.2382 120.579 main 0 0 P_P___________ WP072000 15.7580 119.634 TD -1 16.2382 120.579 1 23 999 27 281
2000193N10131 2000 44 WP MM NOT_NAMED 2000-07-14 00:00:00 TS 16.5000 119.200 main 67 67 P_O___________ WP072000 15.8460 118.309 TD -1 16.5000 119.200 1 23 999 19 285
2000193N10131 2000 44 WP MM NOT_NAMED 2000-07-14 03:00:00 TS 16.7281 118.637 main 135 135 P_P___________ WP072000 15.9294 117.142 TD -1 16.7281 118.637 1 23 998 13 280
2000193N10131 2000 44 WP MM NOT_NAMED 2000-07-14 06:00:00 TS 16.7200 117.900 main 207 207 O_O___________ jtwc_wp WP082000 16.0000 116.300 TD 20 -1 16.9000 118.300 1 23 998 15 268
2000193N10131 2000 44 WP MM NOT_NAMED 2000-07-14 09:00:00 TS 16.6710 117.102 main 288 288 P_P___________ WP082000 16.0500 115.934 TD 20 -1 16.9802 117.657 1 26 998 14 266
2000193N10131 2000 44 WP MM NOT_NAMED 2000-07-14 12:00:00 TS 16.6143 116.443 main 358 358 O_O___________ jtwc_wp WP082000 16.1000 115.700 TD 20 -1 17.0000 117.000 1 29 998 11 265
2000193N10131 2000 44 WP MM NOT_NAMED 2000-07-14 15:00:00 TS 16.5786 115.956 main 400 400 P_P___________ WP082000 16.1424 115.442 TD 22 -1 17.0147 116.470 1 29 998 8 269
2000193N10131 2000 44 WP MM NOT_NAMED 2000-07-14 18:00:00 TS 16.6000 115.600 main 442 442 O_O___________ jtwc_wp WP082000 16.2000 115.200 TD 25 -1 17.0000 116.000 1 29 998 7 273
2000193N10131 2000 44 WP MM NOT_NAMED 2000-07-14 21:00:00 TS 16.6173 115.261 main 474 474 P_P___________ WP082000 16.2925 114.950 TD 25 -1 16.9421 115.572 1 29 997 7 274
2000193N10131 2000 44 WP MM NOT_NAMED 2000-07-15 00:00:00 TS 16.6500 114.900 main 518 484 O_O___________ jtwc_wp WP082000 16.4000 114.700 TD 25 -1 16.9000 115.100 1 29 997 8 276
2000193N10131 2000 44 WP MM NOT_NAMED 2000-07-15 03:00:00 TS 16.6989 114.446 main 475 442 P_P___________ WP082000 16.4925 114.435 TD 25 -1 16.9052 114.457 1 29 997 8 280
2000193N10131 2000 44 WP MM NOT_NAMED 2000-07-15 06:00:00 TS 16.7889 114.044 main 432 394 O_OO__________ jtwc_wp WP082000 16.6000 114.200 TD 25 -1 17.0000 113.800 1 29 997 16.7000 114.400 TD 25 996 8 290
2000193N10131 2000 44 WP MM NOT_NAMED 2000-07-15 09:00:00 TS 16.9699 113.688 main 394 355 P_PP__________ WP082000 16.7050 114.027 TD 25 -1 17.2198 113.263 1 29 997 17.0002 113.860 TD 25 996 8 303
2000193N10131 2000 44 WP MM NOT_NAMED 2000-07-15 12:00:00 TS 17.2273 113.336 main 346 301 O_OO__________ jtwc_wp WP082000 16.9000 113.900 TD 25 -1 17.5000 112.800 1 29 997 17.3000 113.300 TD 25 996 9 309
2000193N10131 2000 44 WP MM NOT_NAMED 2000-07-15 15:00:00 TS 17.5400 112.961 main 301 257 P_PP__________ WP082000 17.2700 113.793 TD 25 -1 17.7499 112.370 1 29 997 17.6001 112.720 TD 25 996 9 314
2000193N10131 2000 44 WP MM NOT_NAMED 2000-07-15 18:00:00 TS 17.8667 112.633 main 243 209 O_OO__________ jtwc_wp WP082000 17.7000 113.700 TD 25 -1 18.0000 112.000 1 29 997 17.9000 112.200 TD 25 996 9 317
2000193N10131 2000 44 WP MM NOT_NAMED 2000-07-15 21:00:00 TS 18.1691 112.351 main 209 167 P_PP__________ WP082000 18.0650 113.593 TD 25 -1 18.2350 111.655 1 29 997 18.2073 111.805 TD 25 996 8 322
2000193N10131 2000 44 WP MM NOT_NAMED 2000-07-16 00:00:00 TS 18.4667 112.133 main 167 145 O_OO__________ jtwc_wp WP082000 18.4000 113.500 TD 25 -1 18.5000 111.400 1 29 997 18.5000 111.500 TD 25 996 7 330
2000193N10131 2000 44 WP MM NOT_NAMED 2000-07-16 03:00:00 TS 18.7641 111.982 main 137 109 P_PP__________ WP082000 18.6925 113.465 TD 25 -1 18.8499 111.255 1 29 997 18.7499 111.227 TD 25 996 6 344
2000193N10131 2000 44 WP MM NOT_NAMED 2000-07-16 06:00:00 TS 19.0727 111.945 main 109 96 O_OO__________ jtwc_wp WP082000 19.0000 113.400 TD 25 -1 19.2000 111.200 1 29 997 19.0000 111.000 TD 25 996 6 355
2000193N10131 2000 44 WP MM NOT_NAMED 2000-07-16 09:00:00 TS 19.3945 111.925 main 96 94 P_PP__________ WP082000 19.3850 113.237 TD 25 -1 19.4575 111.177 1 29 997 19.2876 110.795 TD 25 996 7 358
2000193N10131 2000 44 WP MM NOT_NAMED 2000-07-16 12:00:00 TS 19.7333 111.933 main 94 94 O_OO__________ jtwc_wp WP082000 19.8000 113.000 TD 25 -1 19.7000 111.200 1 29 997 19.6000 110.600 TD 25 996 7 1
2000193N10131 2000 44 WP MM NOT_NAMED 2000-07-16 15:00:00 TS 20.1000 111.953 main 117 106 P_P___________ WP082000 20.2226 112.700 TD 25 -1 19.9774 111.205 1 29 997 TD 7 354
2000193N10131 2000 44 WP MM NOT_NAMED 2000-07-16 18:00:00 TS 20.4500 111.850 main 116 84 O_O___________ jtwc_wp WP082000 20.6000 112.400 TD 25 -1 20.3000 111.300 1 29 997 7 353
2000193N10131 2000 44 WP MM NOT_NAMED 2000-07-16 21:00:00 TS 20.7713 111.870 main 84 54 P_P___________ WP082000 20.8500 112.155 TD 25 -1 20.6927 111.585 1 29 996 7 9
2000193N10131 2000 44 WP MM NOT_NAMED 2000-07-17 00:00:00 TS 21.1000 111.950 main 59 24 O_O___________ jtwc_wp WP082000 21.1000 112.000 TD 25 -1 21.1000 111.900 1 29 996 7 14
2000193N10131 2000 44 WP MM NOT_NAMED 2000-07-17 03:00:00 TS 21.4899 112.059 main 24 0 P_P___________ WP082000 21.4850 111.955 TD 25 -1 21.4948 112.162 1 29 995 8 12
2000193N10131 2000 44 WP MM NOT_NAMED 2000-07-17 06:00:00 TS 21.8429 112.114 main 0 0 O_O___________ jtwc_wp WP082000 21.9000 112.000 TD 25 -1 21.8000 112.200 1 29 995 6 349
2000193N10131 2000 44 WP MM NOT_NAMED 2000-07-17 09:00:00 TS 22.0325 111.943 main 0 0 P_P___________ WP082000 22.2675 112.090 TD 25 -1 21.9150 111.870 1 26 995 7 295
2000193N10131 2000 44 WP MM NOT_NAMED 2000-07-17 12:00:00 TS 22.1200 111.480 main 0 0 O_O___________ jtwc_wp WP082000 22.6000 112.200 TD 25 -1 22.0000 111.300 1 23 996 12 281
2000193N10131 2000 44 WP MM NOT_NAMED 2000-07-17 15:00:00 TS 22.2728 110.658 main 0 0 __P___________ WP082000 TD -1 22.2728 110.658 1 21 997 14 286
2000193N10131 2000 44 WP MM NOT_NAMED 2000-07-17 18:00:00 TS 22.5000 110.000 main 0 0 __O___________ 22.5000 110.000 0 19 998 10 284
2000193N10131 2000 44 WP MM NOT_NAMED 2000-07-17 21:00:00 TS 22.5155 109.590 main 0 0 __P___________ 22.5155 109.590 0 19 998 9 264
2000193N10131 2000 44 WP MM NOT_NAMED 2000-07-18 00:00:00 TS 22.4000 109.000 main 0 0 __O___________ 22.4000 109.000 0 19 998 17 260
2000193N10131 2000 44 WP MM NOT_NAMED 2000-07-18 03:00:00 TS 22.2329 107.764 main 0 0 __P___________ 22.2329 107.764 0 19 998 23 260
2000193N10131 2000 44 WP MM NOT_NAMED 2000-07-18 06:00:00 TS 22.0000 106.500 main 0 0 __O___________ 22.0000 106.500 0 19 998 21 256
2000193N10131 2000 44 WP MM NOT_NAMED 2000-07-18 09:00:00 TS 21.7110 105.585 main 0 0 __P___________ 21.7110 105.585 0 19 998 12 246
2000193N10131 2000 44 WP MM NOT_NAMED 2000-07-18 12:00:00 TS 21.5000 105.300 main 0 0 __O___________ 21.5000 105.300 0 19 998 4 112
2000193N10131 2000 44 WP MM NOT_NAMED 2000-07-18 15:00:00 TS 21.5591 105.984 main 0 0 __P___________ 21.5591 105.984 0 19 998 16 86
2000193N10131 2000 44 WP MM NOT_NAMED 2000-07-18 18:00:00 TS 21.6000 107.000 main 0 0 __O___________ 21.6000 107.000 0 19 998 15 101
2000193N10131 2000 44 WP MM NOT_NAMED 2000-07-18 21:00:00 TS 21.2771 107.606 main 0 0 __P___________ 21.2771 107.606 0 19 998 11 123
2000193N10131 2000 44 WP MM NOT_NAMED 2000-07-19 00:00:00 TS 21.0000 108.000 main 45 35 __O___________ 21.0000 108.000 0 19 998 7 93
2000193N10131 2000 44 WP MM NOT_NAMED 2000-07-19 03:00:00 TS 21.2365 108.368 main 39 15 __P___________ 21.2365 108.368 0 19 998 5 35
2000193N10131 2000 44 WP MM NOT_NAMED 2000-07-19 06:00:00 TS 21.4000 108.300 main 15 0 __O___________ 21.4000 108.300 0 19 998 10 251
2000193N10131 2000 44 WP MM NOT_NAMED 2000-07-19 09:00:00 TS 20.8979 107.324 main 10 0 __P___________ 20.8979 107.324 0 19 998 21 238
2000193N10131 2000 44 WP MM NOT_NAMED 2000-07-19 12:00:00 TS 20.3000 106.400 main 0 0 __O___________ 20.3000 106.400 0 19 998 11 223
2000193N10131 2000 44 WP MM NOT_NAMED 2000-07-19 15:00:00 TS 20.1021 106.529 main 11 11 __P___________ 20.1021 106.529 0 21 997 6 110
2000193N10131 2000 44 WP MM NOT_NAMED 2000-07-19 18:00:00 TS 20.1000 107.000 main 47 47 __O___________ 20.1000 107.000 1 23 997 7 84
2000193N10131 2000 44 WP MM NOT_NAMED 2000-07-19 21:00:00 TS 20.1824 107.282 main 73 70 __P___________ 20.1824 107.282 1 26 997 4 62
2000193N10131 2000 44 WP MM NOT_NAMED 2000-07-20 00:00:00 TS 20.3000 107.400 main 70 __O___________ 20.3000 107.400 1 29 997 3 44

Digital Typhoon Data and Search

About IBTrACS Database

This database is a web-friendly format of International Best Track Archive for Climate Stewardship (IBTrACS), a global best track data archive curated by NOAA dating back to 1842.

Updated: 2021-12-03